sensor_id;sensor_type;location;lat;lon;timestamp;temperature;humidity
18797;DHT22;9526;52.612;13.300;2023-08-17T00:01:47;20.20;99.90
18797;DHT22;9526;52.612;13.300;2023-08-17T00:04:12;20.20;99.90
18797;DHT22;9526;52.612;13.300;2023-08-17T00:06:36;20.20;99.90
18797;DHT22;9526;52.612;13.300;2023-08-17T00:09:00;20.20;99.90
18797;DHT22;9526;52.612;13.300;2023-08-17T00:11:27;20.10;99.90
18797;DHT22;9526;52.612;13.300;2023-08-17T00:13:51;20.10;99.90
18797;DHT22;9526;52.612;13.300;2023-08-17T00:16:15;20.10;99.90
18797;DHT22;9526;52.612;13.300;2023-08-17T00:18:39;20.10;99.90
18797;DHT22;9526;52.612;13.300;2023-08-17T00:21:02;20.10;99.90
18797;DHT22;9526;52.612;13.300;2023-08-17T00:23:26;20.00;99.90
18797;DHT22;9526;52.612;13.300;2023-08-17T00:25:50;20.00;99.90
18797;DHT22;9526;52.612;13.300;2023-08-17T00:28:15;19.90;99.90
18797;DHT22;9526;52.612;13.300;2023-08-17T00:30:39;19.90;99.90
18797;DHT22;9526;52.612;13.300;2023-08-17T00:33:03;19.90;99.90
18797;DHT22;9526;52.612;13.300;2023-08-17T00:35:27;19.80;99.90
18797;DHT22;9526;52.612;13.300;2023-08-17T00:37:51;19.80;99.90
18797;DHT22;9526;52.612;13.300;2023-08-17T00:40:15;19.80;99.90
18797;DHT22;9526;52.612;13.300;2023-08-17T00:42:39;19.80;99.90
18797;DHT22;9526;52.612;13.300;2023-08-17T00:45:05;19.80;99.90
18797;DHT22;9526;52.612;13.300;2023-08-17T00:47:29;19.80;99.90
18797;DHT22;9526;52.612;13.300;2023-08-17T00:49:53;19.70;99.90
18797;DHT22;9526;52.612;13.300;2023-08-17T00:52:17;19.70;99.90
18797;DHT22;9526;52.612;13.300;2023-08-17T00:54:41;19.70;99.90
18797;DHT22;9526;52.612;13.300;2023-08-17T00:57:05;19.80;99.90
18797;DHT22;9526;52.612;13.300;2023-08-17T00:59:28;19.80;99.90
18797;DHT22;9526;52.612;13.300;2023-08-17T01:01:59;19.70;99.90
18797;DHT22;9526;52.612;13.300;2023-08-17T01:04:23;19.70;99.90
18797;DHT22;9526;52.612;13.300;2023-08-17T01:06:47;19.70;99.90
18797;DHT22;9526;52.612;13.300;2023-08-17T01:09:10;19.70;99.90
18797;DHT22;9526;52.612;13.300;2023-08-17T01:11:37;19.60;99.90
18797;DHT22;9526;52.612;13.300;2023-08-17T01:14:09;19.60;99.90
18797;DHT22;9526;52.612;13.300;2023-08-17T01:16:38;19.60;99.90
18797;DHT22;9526;52.612;13.300;2023-08-17T01:19:08;19.60;99.90
18797;DHT22;9526;52.612;13.300;2023-08-17T01:21:41;19.50;99.90
18797;DHT22;9526;52.612;13.300;2023-08-17T01:24:08;19.50;99.90
18797;DHT22;9526;52.612;13.300;2023-08-17T01:26:32;19.50;99.90
18797;DHT22;9526;52.612;13.300;2023-08-17T01:28:56;19.50;99.90
18797;DHT22;9526;52.612;13.300;2023-08-17T01:31:23;19.40;99.90
18797;DHT22;9526;52.612;13.300;2023-08-17T01:33:56;19.40;99.90
18797;DHT22;9526;52.612;13.300;2023-08-17T01:36:26;19.40;99.90
18797;DHT22;9526;52.612;13.300;2023-08-17T01:38:53;19.30;99.90
18797;DHT22;9526;52.612;13.300;2023-08-17T01:41:20;19.40;99.90
18797;DHT22;9526;52.612;13.300;2023-08-17T01:43:46;19.30;99.90
18797;DHT22;9526;52.612;13.300;2023-08-17T01:46:13;19.30;99.90
18797;DHT22;9526;52.612;13.300;2023-08-17T01:48:37;19.20;99.90
18797;DHT22;9526;52.612;13.300;2023-08-17T01:51:01;19.20;99.90
18797;DHT22;9526;52.612;13.300;2023-08-17T01:53:25;19.20;99.90
18797;DHT22;9526;52.612;13.300;2023-08-17T01:55:49;19.10;99.90
18797;DHT22;9526;52.612;13.300;2023-08-17T01:58:17;19.10;99.90
18797;DHT22;9526;52.612;13.300;2023-08-17T02:00:40;19.10;99.90
18797;DHT22;9526;52.612;13.300;2023-08-17T02:03:04;19.10;99.90
18797;DHT22;9526;52.612;13.300;2023-08-17T02:05:28;19.10;99.90
18797;DHT22;9526;52.612;13.300;2023-08-17T02:07:52;19.00;99.90
18797;DHT22;9526;52.612;13.300;2023-08-17T02:10:15;19.00;99.90
18797;DHT22;9526;52.612;13.300;2023-08-17T02:12:39;19.00;99.90
18797;DHT22;9526;52.612;13.300;2023-08-17T02:15:05;19.00;99.90
18797;DHT22;9526;52.612;13.300;2023-08-17T02:17:30;19.00;99.90
18797;DHT22;9526;52.612;13.300;2023-08-17T02:19:54;19.00;99.90
18797;DHT22;9526;52.612;13.300;2023-08-17T02:22:17;19.00;99.90
18797;DHT22;9526;52.612;13.300;2023-08-17T02:24:41;18.90;99.90
18797;DHT22;9526;52.612;13.300;2023-08-17T02:27:05;18.90;99.90
18797;DHT22;9526;52.612;13.300;2023-08-17T02:29:29;18.90;99.90
18797;DHT22;9526;52.612;13.300;2023-08-17T02:31:55;18.90;99.90
18797;DHT22;9526;52.612;13.300;2023-08-17T02:34:21;18.90;99.90
18797;DHT22;9526;52.612;13.300;2023-08-17T02:36:45;19.00;99.90
18797;DHT22;9526;52.612;13.300;2023-08-17T02:39:08;19.00;99.90
18797;DHT22;9526;52.612;13.300;2023-08-17T02:41:32;19.00;99.90
18797;DHT22;9526;52.612;13.300;2023-08-17T02:43:56;19.00;99.90
18797;DHT22;9526;52.612;13.300;2023-08-17T02:46:19;18.90;99.90
18797;DHT22;9526;52.612;13.300;2023-08-17T02:48:45;18.90;99.90
18797;DHT22;9526;52.612;13.300;2023-08-17T02:51:10;18.90;99.90
18797;DHT22;9526;52.612;13.300;2023-08-17T02:53:33;18.90;99.90
18797;DHT22;9526;52.612;13.300;2023-08-17T02:55:57;18.80;99.90
18797;DHT22;9526;52.612;13.300;2023-08-17T02:58:21;18.90;99.90
18797;DHT22;9526;52.612;13.300;2023-08-17T03:00:44;18.80;99.90
18797;DHT22;9526;52.612;13.300;2023-08-17T03:03:08;18.80;99.90
18797;DHT22;9526;52.612;13.300;2023-08-17T03:05:34;18.80;99.90
18797;DHT22;9526;52.612;13.300;2023-08-17T03:07:57;18.80;99.90
18797;DHT22;9526;52.612;13.300;2023-08-17T03:10:21;18.80;99.90
18797;DHT22;9526;52.612;13.300;2023-08-17T03:12:47;18.80;99.90
18797;DHT22;9526;52.612;13.300;2023-08-17T03:15:11;18.80;99.90
18797;DHT22;9526;52.612;13.300;2023-08-17T03:17:35;18.80;99.90
18797;DHT22;9526;52.612;13.300;2023-08-17T03:19:58;18.80;99.90
18797;DHT22;9526;52.612;13.300;2023-08-17T03:22:25;18.80;99.90
18797;DHT22;9526;52.612;13.300;2023-08-17T03:24:49;18.80;99.90
18797;DHT22;9526;52.612;13.300;2023-08-17T03:27:12;18.70;99.90
18797;DHT22;9526;52.612;13.300;2023-08-17T03:29:36;18.70;99.90
18797;DHT22;9526;52.612;13.300;2023-08-17T03:32:00;18.70;99.90
18797;DHT22;9526;52.612;13.300;2023-08-17T03:34:24;18.70;99.90
18797;DHT22;9526;52.612;13.300;2023-08-17T03:36:47;18.70;99.90
18797;DHT22;9526;52.612;13.300;2023-08-17T03:39:13;18.70;99.90
18797;DHT22;9526;52.612;13.300;2023-08-17T03:41:37;18.70;99.90
18797;DHT22;9526;52.612;13.300;2023-08-17T03:44:00;18.60;99.90
18797;DHT22;9526;52.612;13.300;2023-08-17T03:46:25;18.60;99.90
18797;DHT22;9526;52.612;13.300;2023-08-17T03:48:49;18.60;99.90
18797;DHT22;9526;52.612;13.300;2023-08-17T03:51:12;18.60;99.90
18797;DHT22;9526;52.612;13.300;2023-08-17T03:53:36;18.60;99.90
18797;DHT22;9526;52.612;13.300;2023-08-17T03:56:01;18.60;99.90
18797;DHT22;9526;52.612;13.300;2023-08-17T03:58:25;18.60;99.90
18797;DHT22;9526;52.612;13.300;2023-08-17T04:00:55;18.50;99.90
18797;DHT22;9526;52.612;13.300;2023-08-17T04:03:22;18.50;99.90
18797;DHT22;9526;52.612;13.300;2023-08-17T04:05:46;18.50;99.90
18797;DHT22;9526;52.612;13.300;2023-08-17T04:08:10;18.50;99.90
18797;DHT22;9526;52.612;13.300;2023-08-17T04:10:33;18.50;99.90
18797;DHT22;9526;52.612;13.300;2023-08-17T04:12:58;18.50;99.90
18797;DHT22;9526;52.612;13.300;2023-08-17T04:15:24;18.50;99.90
18797;DHT22;9526;52.612;13.300;2023-08-17T04:17:47;18.50;99.90
18797;DHT22;9526;52.612;13.300;2023-08-17T04:20:11;18.50;99.90
18797;DHT22;9526;52.612;13.300;2023-08-17T04:22:35;18.50;99.90
18797;DHT22;9526;52.612;13.300;2023-08-17T04:24:59;18.50;99.90
18797;DHT22;9526;52.612;13.300;2023-08-17T04:27:22;18.50;99.90
18797;DHT22;9526;52.612;13.300;2023-08-17T04:29:48;18.50;99.90
18797;DHT22;9526;52.612;13.300;2023-08-17T04:32:14;18.60;99.90
18797;DHT22;9526;52.612;13.300;2023-08-17T04:34:38;18.50;99.90
18797;DHT22;9526;52.612;13.300;2023-08-17T04:37:02;18.50;99.90
18797;DHT22;9526;52.612;13.300;2023-08-17T04:39:26;18.50;99.90
18797;DHT22;9526;52.612;13.300;2023-08-17T04:41:50;18.50;99.90
18797;DHT22;9526;52.612;13.300;2023-08-17T04:44:20;18.50;99.90
18797;DHT22;9526;52.612;13.300;2023-08-17T04:46:46;18.60;99.90
18797;DHT22;9526;52.612;13.300;2023-08-17T04:49:09;18.60;99.90
18797;DHT22;9526;52.612;13.300;2023-08-17T04:51:33;18.60;99.90
18797;DHT22;9526;52.612;13.300;2023-08-17T04:53:57;18.60;99.90
18797;DHT22;9526;52.612;13.300;2023-08-17T04:56:21;18.70;99.90
18797;DHT22;9526;52.612;13.300;2023-08-17T04:58:45;18.70;99.90
18797;DHT22;9526;52.612;13.300;2023-08-17T05:01:09;18.80;99.90
18797;DHT22;9526;52.612;13.300;2023-08-17T05:03:34;18.80;99.90
18797;DHT22;9526;52.612;13.300;2023-08-17T05:05:59;18.80;99.90
18797;DHT22;9526;52.612;13.300;2023-08-17T05:08:22;18.90;99.90
18797;DHT22;9526;52.612;13.300;2023-08-17T05:10:46;18.90;99.90
18797;DHT22;9526;52.612;13.300;2023-08-17T05:13:10;18.90;99.90
18797;DHT22;9526;52.612;13.300;2023-08-17T05:15:34;18.90;99.90
18797;DHT22;9526;52.612;13.300;2023-08-17T05:18:01;18.90;99.90
18797;DHT22;9526;52.612;13.300;2023-08-17T05:20:26;18.90;99.90
18797;DHT22;9526;52.612;13.300;2023-08-17T05:22:49;18.90;99.90
18797;DHT22;9526;52.612;13.300;2023-08-17T05:25:13;18.80;99.90
18797;DHT22;9526;52.612;13.300;2023-08-17T05:27:37;18.80;99.90
18797;DHT22;9526;52.612;13.300;2023-08-17T05:30:01;18.90;99.90
18797;DHT22;9526;52.612;13.300;2023-08-17T05:32:25;18.90;99.90
18797;DHT22;9526;52.612;13.300;2023-08-17T05:34:49;19.00;99.90
18797;DHT22;9526;52.612;13.300;2023-08-17T05:37:14;19.00;99.90
18797;DHT22;9526;52.612;13.300;2023-08-17T05:39:38;19.00;99.90
18797;DHT22;9526;52.612;13.300;2023-08-17T05:42:03;19.00;99.90
18797;DHT22;9526;52.612;13.300;2023-08-17T05:44:27;19.00;99.90
18797;DHT22;9526;52.612;13.300;2023-08-17T05:46:51;19.10;99.90
18797;DHT22;9526;52.612;13.300;2023-08-17T05:49:14;19.10;99.90
18797;DHT22;9526;52.612;13.300;2023-08-17T05:51:38;19.20;99.90
18797;DHT22;9526;52.612;13.300;2023-08-17T05:54:04;19.20;99.90
18797;DHT22;9526;52.612;13.300;2023-08-17T05:56:29;19.30;99.90
18797;DHT22;9526;52.612;13.300;2023-08-17T05:58:53;19.30;99.90
18797;DHT22;9526;52.612;13.300;2023-08-17T06:01:16;19.40;99.90
18797;DHT22;9526;52.612;13.300;2023-08-17T06:03:40;19.40;99.90
18797;DHT22;9526;52.612;13.300;2023-08-17T06:06:05;19.60;99.90
18797;DHT22;9526;52.612;13.300;2023-08-17T06:08:28;19.70;99.90
18797;DHT22;9526;52.612;13.300;2023-08-17T06:10:54;19.80;99.90
18797;DHT22;9526;52.612;13.300;2023-08-17T06:13:18;19.90;99.90
18797;DHT22;9526;52.612;13.300;2023-08-17T06:15:41;19.90;99.90
18797;DHT22;9526;52.612;13.300;2023-08-17T06:18:05;19.90;99.90
18797;DHT22;9526;52.612;13.300;2023-08-17T06:20:29;20.00;99.90
18797;DHT22;9526;52.612;13.300;2023-08-17T06:22:52;19.90;99.90
18797;DHT22;9526;52.612;13.300;2023-08-17T06:25:16;19.90;99.90
18797;DHT22;9526;52.612;13.300;2023-08-17T06:27:42;20.00;99.90
18797;DHT22;9526;52.612;13.300;2023-08-17T06:30:07;20.10;99.90
18797;DHT22;9526;52.612;13.300;2023-08-17T06:32:31;20.20;99.90
18797;DHT22;9526;52.612;13.300;2023-08-17T06:34:55;20.30;99.90
18797;DHT22;9526;52.612;13.300;2023-08-17T06:37:19;20.50;99.90
18797;DHT22;9526;52.612;13.300;2023-08-17T06:39:43;20.70;99.90
18797;DHT22;9526;52.612;13.300;2023-08-17T06:42:06;21.10;99.90
18797;DHT22;9526;52.612;13.300;2023-08-17T06:44:31;21.40;99.90
18797;DHT22;9526;52.612;13.300;2023-08-17T06:46:55;21.40;99.90
18797;DHT22;9526;52.612;13.300;2023-08-17T06:49:19;21.70;99.90
18797;DHT22;9526;52.612;13.300;2023-08-17T06:51:42;21.80;99.90
18797;DHT22;9526;52.612;13.300;2023-08-17T06:54:07;21.70;99.90
18797;DHT22;9526;52.612;13.300;2023-08-17T06:56:31;21.90;99.90
18797;DHT22;9526;52.612;13.300;2023-08-17T06:58:55;21.90;99.90
18797;DHT22;9526;52.612;13.300;2023-08-17T07:01:20;21.90;99.90
18797;DHT22;9526;52.612;13.300;2023-08-17T07:03:45;22.00;99.90
18797;DHT22;9526;52.612;13.300;2023-08-17T07:06:10;22.00;99.90
18797;DHT22;9526;52.612;13.300;2023-08-17T07:08:34;22.10;99.90
18797;DHT22;9526;52.612;13.300;2023-08-17T07:10:57;22.00;99.90
18797;DHT22;9526;52.612;13.300;2023-08-17T07:13:21;22.10;99.90
18797;DHT22;9526;52.612;13.300;2023-08-17T07:15:45;22.10;99.90
18797;DHT22;9526;52.612;13.300;2023-08-17T07:18:10;22.20;99.90
18797;DHT22;9526;52.612;13.300;2023-08-17T07:20:33;22.20;99.90
18797;DHT22;9526;52.612;13.300;2023-08-17T07:22:57;22.20;99.90
18797;DHT22;9526;52.612;13.300;2023-08-17T07:25:21;22.20;99.90
18797;DHT22;9526;52.612;13.300;2023-08-17T07:27:44;22.30;99.90
18797;DHT22;9526;52.612;13.300;2023-08-17T07:30:09;22.20;99.90
18797;DHT22;9526;52.612;13.300;2023-08-17T07:32:33;22.30;99.90
18797;DHT22;9526;52.612;13.300;2023-08-17T07:34:59;22.20;99.90
18797;DHT22;9526;52.612;13.300;2023-08-17T07:37:23;22.30;99.90
18797;DHT22;9526;52.612;13.300;2023-08-17T07:39:53;22.40;99.90
18797;DHT22;9526;52.612;13.300;2023-08-17T07:42:16;22.50;99.90
18797;DHT22;9526;52.612;13.300;2023-08-17T07:44:40;22.50;99.90
18797;DHT22;9526;52.612;13.300;2023-08-17T07:47:04;22.40;99.90
18797;DHT22;9526;52.612;13.300;2023-08-17T07:49:28;22.40;99.90
18797;DHT22;9526;52.612;13.300;2023-08-17T07:51:55;22.40;99.90
18797;DHT22;9526;52.612;13.300;2023-08-17T07:54:19;22.30;99.90
18797;DHT22;9526;52.612;13.300;2023-08-17T07:56:42;22.40;99.90
18797;DHT22;9526;52.612;13.300;2023-08-17T07:59:06;22.30;99.90
18797;DHT22;9526;52.612;13.300;2023-08-17T08:01:30;22.20;99.90
18797;DHT22;9526;52.612;13.300;2023-08-17T08:03:54;22.20;99.90
18797;DHT22;9526;52.612;13.300;2023-08-17T08:06:17;22.20;99.90
18797;DHT22;9526;52.612;13.300;2023-08-17T08:08:43;22.30;99.90
18797;DHT22;9526;52.612;13.300;2023-08-17T08:11:07;22.30;99.90
18797;DHT22;9526;52.612;13.300;2023-08-17T08:13:31;22.30;99.90
18797;DHT22;9526;52.612;13.300;2023-08-17T08:15:55;22.40;99.90
18797;DHT22;9526;52.612;13.300;2023-08-17T08:18:18;22.40;99.90
18797;DHT22;9526;52.612;13.300;2023-08-17T08:20:42;22.40;99.90
18797;DHT22;9526;52.612;13.300;2023-08-17T08:23:06;22.40;99.90
18797;DHT22;9526;52.612;13.300;2023-08-17T08:25:31;22.40;99.90
18797;DHT22;9526;52.612;13.300;2023-08-17T08:27:54;22.40;99.90
18797;DHT22;9526;52.612;13.300;2023-08-17T08:30:18;22.50;99.90
18797;DHT22;9526;52.612;13.300;2023-08-17T08:32:42;22.50;99.90
18797;DHT22;9526;52.612;13.300;2023-08-17T08:35:06;22.50;99.90
18797;DHT22;9526;52.612;13.300;2023-08-17T08:37:30;22.50;99.90
18797;DHT22;9526;52.612;13.300;2023-08-17T08:39:55;22.40;99.90
18797;DHT22;9526;52.612;13.300;2023-08-17T08:42:21;22.50;99.90
18797;DHT22;9526;52.612;13.300;2023-08-17T08:44:46;22.40;99.90
18797;DHT22;9526;52.612;13.300;2023-08-17T08:47:10;22.40;99.90
18797;DHT22;9526;52.612;13.300;2023-08-17T08:49:38;22.50;99.90
18797;DHT22;9526;52.612;13.300;2023-08-17T08:52:07;22.70;99.90
18797;DHT22;9526;52.612;13.300;2023-08-17T08:54:31;22.60;99.90
18797;DHT22;9526;52.612;13.300;2023-08-17T08:57:01;22.60;99.90
18797;DHT22;9526;52.612;13.300;2023-08-17T08:59:29;22.60;99.90
18797;DHT22;9526;52.612;13.300;2023-08-17T09:01:55;22.50;99.90
18797;DHT22;9526;52.612;13.300;2023-08-17T09:04:19;22.50;99.90
18797;DHT22;9526;52.612;13.300;2023-08-17T09:06:44;22.50;99.90
18797;DHT22;9526;52.612;13.300;2023-08-17T09:09:08;22.60;99.90
18797;DHT22;9526;52.612;13.300;2023-08-17T09:11:32;22.60;99.90
18797;DHT22;9526;52.612;13.300;2023-08-17T09:13:55;22.60;99.90
18797;DHT22;9526;52.612;13.300;2023-08-17T09:16:21;22.60;99.90
18797;DHT22;9526;52.612;13.300;2023-08-17T09:18:47;22.60;99.90
18797;DHT22;9526;52.612;13.300;2023-08-17T09:21:20;22.60;99.90
18797;DHT22;9526;52.612;13.300;2023-08-17T09:23:50;22.80;99.90
18797;DHT22;9526;52.612;13.300;2023-08-17T09:26:21;22.80;99.90
18797;DHT22;9526;52.612;13.300;2023-08-17T09:28:45;22.90;99.90
18797;DHT22;9526;52.612;13.300;2023-08-17T09:31:09;22.80;99.90
18797;DHT22;9526;52.612;13.300;2023-08-17T09:33:34;23.00;99.90
18797;DHT22;9526;52.612;13.300;2023-08-17T09:35:59;23.10;99.90
18797;DHT22;9526;52.612;13.300;2023-08-17T09:38:23;23.10;99.90
18797;DHT22;9526;52.612;13.300;2023-08-17T09:40:48;23.20;99.90
18797;DHT22;9526;52.612;13.300;2023-08-17T09:43:12;23.40;99.90
18797;DHT22;9526;52.612;13.300;2023-08-17T09:45:37;23.40;99.90
18797;DHT22;9526;52.612;13.300;2023-08-17T09:47:59;23.50;99.90
18797;DHT22;9526;52.612;13.300;2023-08-17T09:50:26;23.70;99.90
18797;DHT22;9526;52.612;13.300;2023-08-17T09:52:52;23.90;99.90
18797;DHT22;9526;52.612;13.300;2023-08-17T09:55:17;23.70;99.90
18797;DHT22;9526;52.612;13.300;2023-08-17T09:57:41;23.80;99.90
18797;DHT22;9526;52.612;13.300;2023-08-17T10:00:07;23.90;99.90
18797;DHT22;9526;52.612;13.300;2023-08-17T10:02:34;24.10;99.90
18797;DHT22;9526;52.612;13.300;2023-08-17T10:04:58;24.10;99.90
18797;DHT22;9526;52.612;13.300;2023-08-17T10:07:26;24.00;99.90
18797;DHT22;9526;52.612;13.300;2023-08-17T10:09:58;23.70;99.90
18797;DHT22;9526;52.612;13.300;2023-08-17T10:12:28;23.60;99.90
18797;DHT22;9526;52.612;13.300;2023-08-17T10:14:59;23.70;99.90
18797;DHT22;9526;52.612;13.300;2023-08-17T10:17:27;23.60;99.90
18797;DHT22;9526;52.612;13.300;2023-08-17T10:19:56;23.60;99.90
18797;DHT22;9526;52.612;13.300;2023-08-17T10:22:28;23.70;99.90
18797;DHT22;9526;52.612;13.300;2023-08-17T10:24:56;23.70;99.90
18797;DHT22;9526;52.612;13.300;2023-08-17T10:27:21;23.70;99.90
18797;DHT22;9526;52.612;13.300;2023-08-17T10:29:45;23.70;99.90
18797;DHT22;9526;52.612;13.300;2023-08-17T10:32:09;23.70;99.90
18797;DHT22;9526;52.612;13.300;2023-08-17T10:34:38;23.80;99.90
18797;DHT22;9526;52.612;13.300;2023-08-17T10:37:02;23.90;99.90
18797;DHT22;9526;52.612;13.300;2023-08-17T10:39:28;24.10;99.90
18797;DHT22;9526;52.612;13.300;2023-08-17T10:41:53;24.20;99.90
18797;DHT22;9526;52.612;13.300;2023-08-17T10:44:18;24.10;99.90
18797;DHT22;9526;52.612;13.300;2023-08-17T10:46:47;24.20;99.90
18797;DHT22;9526;52.612;13.300;2023-08-17T10:49:24;24.50;99.90
18797;DHT22;9526;52.612;13.300;2023-08-17T10:52:00;24.80;99.90
18797;DHT22;9526;52.612;13.300;2023-08-17T10:54:36;25.20;99.90
18797;DHT22;9526;52.612;13.300;2023-08-17T10:57:30;25.60;99.90
18797;DHT22;9526;52.612;13.300;2023-08-17T11:00:13;26.20;99.90
18797;DHT22;9526;52.612;13.300;2023-08-17T11:02:43;25.90;99.90
18797;DHT22;9526;52.612;13.300;2023-08-17T11:05:07;26.10;99.90
18797;DHT22;9526;52.612;13.300;2023-08-17T11:07:39;26.40;99.90
18797;DHT22;9526;52.612;13.300;2023-08-17T11:10:11;26.50;99.90
18797;DHT22;9526;52.612;13.300;2023-08-17T11:12:36;26.70;99.90
18797;DHT22;9526;52.612;13.300;2023-08-17T11:14:59;26.90;99.90
18797;DHT22;9526;52.612;13.300;2023-08-17T11:17:23;26.70;99.90
18797;DHT22;9526;52.612;13.300;2023-08-17T11:19:47;26.60;99.90
18797;DHT22;9526;52.612;13.300;2023-08-17T11:22:13;26.50;99.90
18797;DHT22;9526;52.612;13.300;2023-08-17T11:24:41;26.30;99.90
18797;DHT22;9526;52.612;13.300;2023-08-17T11:27:08;26.30;99.90
18797;DHT22;9526;52.612;13.300;2023-08-17T11:29:32;26.00;99.90
18797;DHT22;9526;52.612;13.300;2023-08-17T11:31:56;26.00;99.90
18797;DHT22;9526;52.612;13.300;2023-08-17T11:34:21;26.10;99.90
18797;DHT22;9526;52.612;13.300;2023-08-17T11:36:44;26.20;99.90
18797;DHT22;9526;52.612;13.300;2023-08-17T11:39:08;26.30;99.90
18797;DHT22;9526;52.612;13.300;2023-08-17T11:41:34;26.80;99.90
18797;DHT22;9526;52.612;13.300;2023-08-17T11:43:59;26.90;99.90
18797;DHT22;9526;52.612;13.300;2023-08-17T11:46:23;26.70;99.90
18797;DHT22;9526;52.612;13.300;2023-08-17T11:48:51;27.10;99.90
18797;DHT22;9526;52.612;13.300;2023-08-17T11:51:15;27.30;99.90
18797;DHT22;9526;52.612;13.300;2023-08-17T11:53:39;27.70;99.90
18797;DHT22;9526;52.612;13.300;2023-08-17T11:56:04;27.60;99.90
18797;DHT22;9526;52.612;13.300;2023-08-17T11:58:40;27.30;99.90
18797;DHT22;9526;52.612;13.300;2023-08-17T12:01:10;27.20;99.90
18797;DHT22;9526;52.612;13.300;2023-08-17T12:03:34;27.20;99.90
18797;DHT22;9526;52.612;13.300;2023-08-17T12:05:58;27.10;99.90
18797;DHT22;9526;52.612;13.300;2023-08-17T12:08:22;27.50;99.90
18797;DHT22;9526;52.612;13.300;2023-08-17T12:10:46;27.60;99.90
18797;DHT22;9526;52.612;13.300;2023-08-17T12:13:11;27.40;99.90
18797;DHT22;9526;52.612;13.300;2023-08-17T12:15:38;27.00;99.90
18797;DHT22;9526;52.612;13.300;2023-08-17T12:18:04;27.20;99.90
18797;DHT22;9526;52.612;13.300;2023-08-17T12:20:29;27.40;99.90
18797;DHT22;9526;52.612;13.300;2023-08-17T12:22:53;27.20;99.90
18797;DHT22;9526;52.612;13.300;2023-08-17T12:25:20;27.20;99.90
18797;DHT22;9526;52.612;13.300;2023-08-17T12:27:47;27.20;99.90
18797;DHT22;9526;52.612;13.300;2023-08-17T12:30:24;27.60;99.90
18797;DHT22;9526;52.612;13.300;2023-08-17T12:32:49;27.30;99.90
18797;DHT22;9526;52.612;13.300;2023-08-17T12:35:14;27.40;99.90
18797;DHT22;9526;52.612;13.300;2023-08-17T12:37:38;27.50;99.90
18797;DHT22;9526;52.612;13.300;2023-08-17T12:40:02;27.40;99.90
18797;DHT22;9526;52.612;13.300;2023-08-17T12:42:27;27.60;99.90
18797;DHT22;9526;52.612;13.300;2023-08-17T12:44:51;27.50;99.90
18797;DHT22;9526;52.612;13.300;2023-08-17T12:47:15;27.30;99.90
18797;DHT22;9526;52.612;13.300;2023-08-17T12:49:39;27.50;99.90
18797;DHT22;9526;52.612;13.300;2023-08-17T12:52:04;27.90;99.90
18797;DHT22;9526;52.612;13.300;2023-08-17T12:54:28;27.50;99.90
18797;DHT22;9526;52.612;13.300;2023-08-17T12:56:52;27.40;99.90
18797;DHT22;9526;52.612;13.300;2023-08-17T12:59:20;27.50;99.90
18797;DHT22;9526;52.612;13.300;2023-08-17T13:01:44;27.70;99.90
18797;DHT22;9526;52.612;13.300;2023-08-17T13:04:07;27.50;99.90
18797;DHT22;9526;52.612;13.300;2023-08-17T13:06:31;26.90;99.90
18797;DHT22;9526;52.612;13.300;2023-08-17T13:09:11;27.30;99.90
18797;DHT22;9526;52.612;13.300;2023-08-17T13:11:36;27.60;99.90
18797;DHT22;9526;52.612;13.300;2023-08-17T13:14:00;27.80;99.90
18797;DHT22;9526;52.612;13.300;2023-08-17T13:16:24;27.70;99.90
18797;DHT22;9526;52.612;13.300;2023-08-17T13:18:48;27.30;99.90
18797;DHT22;9526;52.612;13.300;2023-08-17T13:21:12;27.50;99.90
18797;DHT22;9526;52.612;13.300;2023-08-17T13:23:37;27.60;99.90
18797;DHT22;9526;52.612;13.300;2023-08-17T13:26:02;27.70;99.90
18797;DHT22;9526;52.612;13.300;2023-08-17T13:28:26;27.90;99.90
18797;DHT22;9526;52.612;13.300;2023-08-17T13:30:50;27.90;99.90
18797;DHT22;9526;52.612;13.300;2023-08-17T13:33:14;27.80;99.90
18797;DHT22;9526;52.612;13.300;2023-08-17T13:35:38;27.70;99.90
18797;DHT22;9526;52.612;13.300;2023-08-17T13:38:02;27.90;99.90
18797;DHT22;9526;52.612;13.300;2023-08-17T13:40:26;28.10;99.90
18797;DHT22;9526;52.612;13.300;2023-08-17T13:42:51;28.20;99.90
18797;DHT22;9526;52.612;13.300;2023-08-17T13:45:15;28.20;99.90
18797;DHT22;9526;52.612;13.300;2023-08-17T13:47:39;28.10;99.90
18797;DHT22;9526;52.612;13.300;2023-08-17T13:50:03;28.30;99.90
18797;DHT22;9526;52.612;13.300;2023-08-17T13:52:28;28.50;99.90
18797;DHT22;9526;52.612;13.300;2023-08-17T13:54:52;28.50;99.90
18797;DHT22;9526;52.612;13.300;2023-08-17T13:57:16;28.40;99.90
18797;DHT22;9526;52.612;13.300;2023-08-17T13:59:41;28.50;99.90
18797;DHT22;9526;52.612;13.300;2023-08-17T14:02:05;28.40;99.90
18797;DHT22;9526;52.612;13.300;2023-08-17T14:04:29;28.40;99.90
18797;DHT22;9526;52.612;13.300;2023-08-17T14:06:53;28.50;99.90
18797;DHT22;9526;52.612;13.300;2023-08-17T14:09:17;28.60;99.90
18797;DHT22;9526;52.612;13.300;2023-08-17T14:11:40;28.50;99.90
18797;DHT22;9526;52.612;13.300;2023-08-17T14:14:04;28.30;99.90
18797;DHT22;9526;52.612;13.300;2023-08-17T14:16:32;28.30;99.90
18797;DHT22;9526;52.612;13.300;2023-08-17T14:18:56;28.50;99.90
18797;DHT22;9526;52.612;13.300;2023-08-17T14:21:20;28.60;99.90
18797;DHT22;9526;52.612;13.300;2023-08-17T14:23:43;28.40;99.90
18797;DHT22;9526;52.612;13.300;2023-08-17T14:26:07;28.50;99.90
18797;DHT22;9526;52.612;13.300;2023-08-17T14:28:31;28.50;99.90
18797;DHT22;9526;52.612;13.300;2023-08-17T14:30:55;28.20;99.90
18797;DHT22;9526;52.612;13.300;2023-08-17T14:33:20;28.40;99.90
18797;DHT22;9526;52.612;13.300;2023-08-17T14:35:44;28.40;99.90
18797;DHT22;9526;52.612;13.300;2023-08-17T14:38:08;28.50;99.90
18797;DHT22;9526;52.612;13.300;2023-08-17T14:40:35;28.30;99.90
18797;DHT22;9526;52.612;13.300;2023-08-17T14:43:04;28.30;99.90
18797;DHT22;9526;52.612;13.300;2023-08-17T14:45:27;28.50;99.90
18797;DHT22;9526;52.612;13.300;2023-08-17T14:47:51;28.30;99.90
18797;DHT22;9526;52.612;13.300;2023-08-17T14:50:17;28.00;99.90
18797;DHT22;9526;52.612;13.300;2023-08-17T14:52:42;28.00;99.90
18797;DHT22;9526;52.612;13.300;2023-08-17T14:55:06;28.10;99.90
18797;DHT22;9526;52.612;13.300;2023-08-17T14:57:31;28.30;99.90
18797;DHT22;9526;52.612;13.300;2023-08-17T14:59:55;28.20;99.90
18797;DHT22;9526;52.612;13.300;2023-08-17T15:02:19;28.20;99.90
18797;DHT22;9526;52.612;13.300;2023-08-17T15:04:43;28.10;99.90
18797;DHT22;9526;52.612;13.300;2023-08-17T15:07:08;28.10;99.90
18797;DHT22;9526;52.612;13.300;2023-08-17T15:09:33;28.20;99.90
18797;DHT22;9526;52.612;13.300;2023-08-17T15:11:57;27.90;99.90
18797;DHT22;9526;52.612;13.300;2023-08-17T15:14:20;27.80;99.90
18797;DHT22;9526;52.612;13.300;2023-08-17T15:16:45;27.70;99.90